sensor_id;sensor_type;location;lat;lon;timestamp;pressure;altitude;pressure_sealevel;temperature;humidity
41706;BME280;27385;51.096;17.190;2023-08-17T00:02:14;100570.39;;;20.30;88.68
41706;BME280;27385;51.096;17.190;2023-08-17T00:04:45;100579.17;;;20.29;89.01
41706;BME280;27385;51.096;17.190;2023-08-17T00:07:16;100574.47;;;20.26;89.15
41706;BME280;27385;51.096;17.190;2023-08-17T00:09:47;100570.52;;;20.21;89.51
41706;BME280;27385;51.096;17.190;2023-08-17T00:12:18;100575.66;;;20.16;89.79
41706;BME280;27385;51.096;17.190;2023-08-17T00:14:49;100577.48;;;20.12;90.13
41706;BME280;27385;51.096;17.190;2023-08-17T00:17:21;100580.82;;;20.09;90.41
41706;BME280;27385;51.096;17.190;2023-08-17T00:19:53;100590.32;;;20.08;90.78
41706;BME280;27385;51.096;17.190;2023-08-17T00:22:23;100598.38;;;20.07;91.25
41706;BME280;27385;51.096;17.190;2023-08-17T00:24:54;100597.42;;;20.04;91.47
41706;BME280;27385;51.096;17.190;2023-08-17T00:27:26;100594.91;;;20.03;91.80
41706;BME280;27385;51.096;17.190;2023-08-17T00:29:57;100599.92;;;20.03;92.00
41706;BME280;27385;51.096;17.190;2023-08-17T00:32:28;100611.10;;;20.03;92.41
41706;BME280;27385;51.096;17.190;2023-08-17T00:34:59;100623.45;;;20.01;92.67
41706;BME280;27385;51.096;17.190;2023-08-17T00:37:30;100643.52;;;20.02;92.65
41706;BME280;27385;51.096;17.190;2023-08-17T00:40:01;100697.83;;;20.06;92.40
41706;BME280;27385;51.096;17.190;2023-08-17T00:42:33;100724.41;;;20.12;92.72
41706;BME280;27385;51.096;17.190;2023-08-17T00:45:05;100726.92;;;20.09;90.98
41706;BME280;27385;51.096;17.190;2023-08-17T00:47:37;100730.90;;;20.08;90.65
41706;BME280;27385;51.096;17.190;2023-08-17T00:50:09;100730.35;;;20.11;90.53
41706;BME280;27385;51.096;17.190;2023-08-17T00:52:41;100740.77;;;20.15;91.09
41706;BME280;27385;51.096;17.190;2023-08-17T00:55:13;100757.09;;;20.27;91.54
41706;BME280;27385;51.096;17.190;2023-08-17T00:57:44;100757.21;;;20.33;90.06
41706;BME280;27385;51.096;17.190;2023-08-17T01:00:16;100762.34;;;20.37;89.57
41706;BME280;27385;51.096;17.190;2023-08-17T01:02:47;100743.61;;;20.37;89.19
41706;BME280;27385;51.096;17.190;2023-08-17T01:05:19;100744.23;;;20.38;88.77
41706;BME280;27385;51.096;17.190;2023-08-17T01:07:50;100742.86;;;20.39;88.32
41706;BME280;27385;51.096;17.190;2023-08-17T01:10:21;100735.35;;;20.42;88.42
41706;BME280;27385;51.096;17.190;2023-08-17T01:13:04;100720.02;;;20.42;88.82
41706;BME280;27385;51.096;17.190;2023-08-17T01:15:37;100699.17;;;20.40;89.09
41706;BME280;27385;51.096;17.190;2023-08-17T01:18:17;100664.27;;;20.38;88.81
41706;BME280;27385;51.096;17.190;2023-08-17T01:20:51;100628.85;;;20.33;89.23
41706;BME280;27385;51.096;17.190;2023-08-17T01:23:23;100629.88;;;20.22;89.23
41706;BME280;27385;51.096;17.190;2023-08-17T01:25:54;100640.89;;;20.14;89.61
41706;BME280;27385;51.096;17.190;2023-08-17T01:28:27;100639.66;;;20.06;90.08
41706;BME280;27385;51.096;17.190;2023-08-17T01:31:00;100633.48;;;19.98;90.65
41706;BME280;27385;51.096;17.190;2023-08-17T01:33:37;100619.41;;;19.91;90.32
41706;BME280;27385;51.096;17.190;2023-08-17T01:36:13;100617.95;;;19.85;90.38
41706;BME280;27385;51.096;17.190;2023-08-17T01:38:49;100618.56;;;19.76;90.53
41706;BME280;27385;51.096;17.190;2023-08-17T01:41:22;100613.30;;;19.69;90.85
41706;BME280;27385;51.096;17.190;2023-08-17T01:43:54;100601.70;;;19.64;90.92
41706;BME280;27385;51.096;17.190;2023-08-17T01:46:29;100598.45;;;19.62;91.07
41706;BME280;27385;51.096;17.190;2023-08-17T01:49:00;100598.59;;;19.59;91.43
41706;BME280;27385;51.096;17.190;2023-08-17T01:51:31;100602.11;;;19.57;91.76
41706;BME280;27385;51.096;17.190;2023-08-17T01:54:02;100603.63;;;19.52;92.22
41706;BME280;27385;51.096;17.190;2023-08-17T01:56:33;100610.34;;;19.48;92.37
41706;BME280;27385;51.096;17.190;2023-08-17T01:59:05;100608.66;;;19.48;92.34
41706;BME280;27385;51.096;17.190;2023-08-17T02:01:36;100608.19;;;19.48;92.37
41706;BME280;27385;51.096;17.190;2023-08-17T02:04:07;100603.52;;;19.48;92.47
41706;BME280;27385;51.096;17.190;2023-08-17T02:06:38;100606.36;;;19.46;92.58
41706;BME280;27385;51.096;17.190;2023-08-17T02:09:09;100604.16;;;19.44;92.73
41706;BME280;27385;51.096;17.190;2023-08-17T02:11:40;100601.83;;;19.42;92.76
41706;BME280;27385;51.096;17.190;2023-08-17T02:14:11;100597.90;;;19.38;92.92
41706;BME280;27385;51.096;17.190;2023-08-17T02:16:42;100593.58;;;19.33;92.72
41706;BME280;27385;51.096;17.190;2023-08-17T02:19:13;100589.30;;;19.32;92.78
41706;BME280;27385;51.096;17.190;2023-08-17T02:21:44;100583.80;;;19.31;92.86
41706;BME280;27385;51.096;17.190;2023-08-17T02:24:15;100581.84;;;19.31;92.99
41706;BME280;27385;51.096;17.190;2023-08-17T02:26:46;100580.91;;;19.31;92.96
41706;BME280;27385;51.096;17.190;2023-08-17T02:29:17;100583.69;;;19.32;92.77
41706;BME280;27385;51.096;17.190;2023-08-17T02:31:48;100578.74;;;19.32;92.88
41706;BME280;27385;51.096;17.190;2023-08-17T02:34:19;100577.61;;;19.31;92.78
41706;BME280;27385;51.096;17.190;2023-08-17T02:36:50;100578.27;;;19.28;92.77
41706;BME280;27385;51.096;17.190;2023-08-17T02:39:21;100571.71;;;19.25;92.73
41706;BME280;27385;51.096;17.190;2023-08-17T02:41:51;100566.27;;;19.25;92.61
41706;BME280;27385;51.096;17.190;2023-08-17T02:44:23;100566.08;;;19.23;92.59
41706;BME280;27385;51.096;17.190;2023-08-17T02:46:54;100566.35;;;19.22;92.86
41706;BME280;27385;51.096;17.190;2023-08-17T02:49:25;100560.39;;;19.21;92.77
41706;BME280;27385;51.096;17.190;2023-08-17T02:51:56;100560.59;;;19.21;92.83
41706;BME280;27385;51.096;17.190;2023-08-17T02:54:26;100568.20;;;19.23;92.89
41706;BME280;27385;51.096;17.190;2023-08-17T02:56:58;100567.61;;;19.24;92.91
41706;BME280;27385;51.096;17.190;2023-08-17T02:59:29;100567.89;;;19.23;93.03
41706;BME280;27385;51.096;17.190;2023-08-17T03:02:00;100566.53;;;19.23;92.96
41706;BME280;27385;51.096;17.190;2023-08-17T03:04:31;100565.48;;;19.26;93.16
41706;BME280;27385;51.096;17.190;2023-08-17T03:07:03;100567.30;;;19.28;92.89
41706;BME280;27385;51.096;17.190;2023-08-17T03:09:34;100570.27;;;19.31;92.81
41706;BME280;27385;51.096;17.190;2023-08-17T03:12:06;100567.63;;;19.33;92.87
41706;BME280;27385;51.096;17.190;2023-08-17T03:14:37;100564.59;;;19.33;92.99
41706;BME280;27385;51.096;17.190;2023-08-17T03:17:08;100562.34;;;19.33;93.56
41706;BME280;27385;51.096;17.190;2023-08-17T03:19:39;100556.67;;;19.31;93.30
41706;BME280;27385;51.096;17.190;2023-08-17T03:22:10;100559.51;;;19.30;93.61
41706;BME280;27385;51.096;17.190;2023-08-17T03:24:41;100565.08;;;19.29;93.72
41706;BME280;27385;51.096;17.190;2023-08-17T03:27:12;100568.22;;;19.29;94.06
41706;BME280;27385;51.096;17.190;2023-08-17T03:29:43;100572.58;;;19.33;93.75
41706;BME280;27385;51.096;17.190;2023-08-17T03:32:14;100582.16;;;19.38;94.09
41706;BME280;27385;51.096;17.190;2023-08-17T03:34:45;100585.33;;;19.40;94.16
41706;BME280;27385;51.096;17.190;2023-08-17T03:37:16;100587.66;;;19.43;94.30
41706;BME280;27385;51.096;17.190;2023-08-17T03:39:46;100586.38;;;19.47;94.10
41706;BME280;27385;51.096;17.190;2023-08-17T03:42:17;100590.41;;;19.50;93.99
41706;BME280;27385;51.096;17.190;2023-08-17T03:44:48;100600.05;;;19.53;93.68
41706;BME280;27385;51.096;17.190;2023-08-17T03:47:20;100599.71;;;19.55;93.79
41706;BME280;27385;51.096;17.190;2023-08-17T03:49:51;100602.10;;;19.58;93.81
41706;BME280;27385;51.096;17.190;2023-08-17T03:52:22;100605.44;;;19.59;93.48
41706;BME280;27385;51.096;17.190;2023-08-17T03:54:53;100607.27;;;19.61;93.51
41706;BME280;27385;51.096;17.190;2023-08-17T03:57:24;100612.56;;;19.62;93.69
41706;BME280;27385;51.096;17.190;2023-08-17T03:59:55;100618.41;;;19.63;93.93
41706;BME280;27385;51.096;17.190;2023-08-17T04:02:26;100624.27;;;19.65;93.92
41706;BME280;27385;51.096;17.190;2023-08-17T04:04:57;100621.48;;;19.66;94.16
41706;BME280;27385;51.096;17.190;2023-08-17T04:07:28;100616.77;;;19.66;94.25
41706;BME280;27385;51.096;17.190;2023-08-17T04:10:00;100614.36;;;19.66;94.20
41706;BME280;27385;51.096;17.190;2023-08-17T04:12:30;100613.95;;;19.66;94.18
41706;BME280;27385;51.096;17.190;2023-08-17T04:15:02;100611.31;;;19.66;94.18
41706;BME280;27385;51.096;17.190;2023-08-17T04:17:33;100609.84;;;19.66;94.14
41706;BME280;27385;51.096;17.190;2023-08-17T04:20:05;100614.52;;;19.66;94.28
41706;BME280;27385;51.096;17.190;2023-08-17T04:22:36;100621.44;;;19.65;94.37
41706;BME280;27385;51.096;17.190;2023-08-17T04:25:08;100630.46;;;19.63;94.34
41706;BME280;27385;51.096;17.190;2023-08-17T04:27:39;100630.78;;;19.62;94.31
41706;BME280;27385;51.096;17.190;2023-08-17T04:30:12;100643.77;;;19.62;94.39
41706;BME280;27385;51.096;17.190;2023-08-17T04:32:43;100649.84;;;19.59;94.50
41706;BME280;27385;51.096;17.190;2023-08-17T04:35:14;100662.96;;;19.59;94.66
41706;BME280;27385;51.096;17.190;2023-08-17T04:37:45;100676.02;;;19.57;94.64
41706;BME280;27385;51.096;17.190;2023-08-17T04:40:16;100683.40;;;19.54;94.72
41706;BME280;27385;51.096;17.190;2023-08-17T04:42:48;100685.02;;;19.56;95.11
41706;BME280;27385;51.096;17.190;2023-08-17T04:45:20;100686.55;;;19.57;95.17
41706;BME280;27385;51.096;17.190;2023-08-17T04:47:50;100688.19;;;19.58;95.39
41706;BME280;27385;51.096;17.190;2023-08-17T04:50:21;100683.66;;;19.59;95.57
41706;BME280;27385;51.096;17.190;2023-08-17T04:52:52;100688.64;;;19.61;95.59
41706;BME280;27385;51.096;17.190;2023-08-17T04:55:23;100691.80;;;19.62;95.58
41706;BME280;27385;51.096;17.190;2023-08-17T04:57:54;100694.02;;;19.63;95.55
41706;BME280;27385;51.096;17.190;2023-08-17T05:00:25;100698.33;;;19.63;95.60
41706;BME280;27385;51.096;17.190;2023-08-17T05:02:57;100704.56;;;19.64;95.88
41706;BME280;27385;51.096;17.190;2023-08-17T05:05:28;100705.45;;;19.62;95.72
41706;BME280;27385;51.096;17.190;2023-08-17T05:08:00;100701.45;;;19.61;95.94
41706;BME280;27385;51.096;17.190;2023-08-17T05:10:31;100694.78;;;19.59;95.96
41706;BME280;27385;51.096;17.190;2023-08-17T05:13:02;100690.36;;;19.57;96.12
41706;BME280;27385;51.096;17.190;2023-08-17T05:15:32;100699.11;;;19.54;96.26
41706;BME280;27385;51.096;17.190;2023-08-17T05:18:03;100702.15;;;19.54;96.17
41706;BME280;27385;51.096;17.190;2023-08-17T05:20:34;100709.73;;;19.58;96.45
41706;BME280;27385;51.096;17.190;2023-08-17T05:23:06;100703.34;;;19.63;96.59
41706;BME280;27385;51.096;17.190;2023-08-17T05:25:37;100692.13;;;19.66;96.79
41706;BME280;27385;51.096;17.190;2023-08-17T05:28:08;100696.62;;;19.69;96.71
41706;BME280;27385;51.096;17.190;2023-08-17T05:30:39;100697.72;;;19.74;96.87
41706;BME280;27385;51.096;17.190;2023-08-17T05:33:10;100703.06;;;19.78;97.08
41706;BME280;27385;51.096;17.190;2023-08-17T05:35:41;100699.30;;;19.83;96.98
41706;BME280;27385;51.096;17.190;2023-08-17T05:38:12;100691.27;;;19.88;97.50
41706;BME280;27385;51.096;17.190;2023-08-17T05:40:42;100688.93;;;19.93;97.36
41706;BME280;27385;51.096;17.190;2023-08-17T05:43:13;100686.98;;;20.01;97.39
41706;BME280;27385;51.096;17.190;2023-08-17T05:45:44;100681.08;;;20.07;97.02
41706;BME280;27385;51.096;17.190;2023-08-17T05:48:15;100677.16;;;20.15;97.06
41706;BME280;27385;51.096;17.190;2023-08-17T05:50:46;100672.73;;;20.21;96.61
41706;BME280;27385;51.096;17.190;2023-08-17T05:53:17;100678.54;;;20.26;96.25
41706;BME280;27385;51.096;17.190;2023-08-17T05:55:48;100673.98;;;20.32;95.92
41706;BME280;27385;51.096;17.190;2023-08-17T05:58:18;100668.80;;;20.38;95.95
41706;BME280;27385;51.096;17.190;2023-08-17T06:00:49;100663.58;;;20.41;95.04
41706;BME280;27385;51.096;17.190;2023-08-17T06:03:20;100663.60;;;20.47;94.41
41706;BME280;27385;51.096;17.190;2023-08-17T06:05:54;100668.96;;;20.51;93.99
41706;BME280;27385;51.096;17.190;2023-08-17T06:08:25;100669.96;;;20.56;94.18
41706;BME280;27385;51.096;17.190;2023-08-17T06:10:56;100667.80;;;20.60;93.35
41706;BME280;27385;51.096;17.190;2023-08-17T06:13:27;100669.84;;;20.64;93.35
41706;BME280;27385;51.096;17.190;2023-08-17T06:15:58;100669.33;;;20.68;93.71
41706;BME280;27385;51.096;17.190;2023-08-17T06:18:30;100671.50;;;20.71;93.05
41706;BME280;27385;51.096;17.190;2023-08-17T06:21:01;100670.43;;;20.76;93.12
41706;BME280;27385;51.096;17.190;2023-08-17T06:23:32;100671.55;;;20.80;92.56
41706;BME280;27385;51.096;17.190;2023-08-17T06:26:03;100677.83;;;20.84;92.00
41706;BME280;27385;51.096;17.190;2023-08-17T06:28:34;100681.09;;;20.87;91.87
41706;BME280;27385;51.096;17.190;2023-08-17T06:31:05;100683.09;;;20.91;91.97
41706;BME280;27385;51.096;17.190;2023-08-17T06:33:36;100681.45;;;20.93;92.26
41706;BME280;27385;51.096;17.190;2023-08-17T06:36:07;100681.38;;;20.95;91.60
41706;BME280;27385;51.096;17.190;2023-08-17T06:38:38;100677.72;;;20.98;91.32
41706;BME280;27385;51.096;17.190;2023-08-17T06:41:08;100676.02;;;21.01;91.15
41706;BME280;27385;51.096;17.190;2023-08-17T06:43:39;100681.30;;;21.04;91.46
41706;BME280;27385;51.096;17.190;2023-08-17T06:46:11;100689.55;;;21.05;91.20
41706;BME280;27385;51.096;17.190;2023-08-17T06:48:42;100692.67;;;21.07;91.35
41706;BME280;27385;51.096;17.190;2023-08-17T06:51:13;100695.92;;;21.09;91.75
41706;BME280;27385;51.096;17.190;2023-08-17T06:53:44;100692.75;;;21.11;91.09
41706;BME280;27385;51.096;17.190;2023-08-17T06:56:15;100687.54;;;21.14;90.62
41706;BME280;27385;51.096;17.190;2023-08-17T06:58:46;100687.48;;;21.17;89.98
41706;BME280;27385;51.096;17.190;2023-08-17T07:01:17;100683.89;;;21.22;89.72
41706;BME280;27385;51.096;17.190;2023-08-17T07:03:48;100688.29;;;21.27;89.68
41706;BME280;27385;51.096;17.190;2023-08-17T07:06:19;100689.91;;;21.32;88.82
41706;BME280;27385;51.096;17.190;2023-08-17T07:08:50;100684.09;;;21.34;87.95
41706;BME280;27385;51.096;17.190;2023-08-17T07:11:22;100687.88;;;21.39;87.81
41706;BME280;27385;51.096;17.190;2023-08-17T07:13:53;100693.70;;;21.45;87.43
41706;BME280;27385;51.096;17.190;2023-08-17T07:16:24;100699.03;;;21.50;86.78
41706;BME280;27385;51.096;17.190;2023-08-17T07:18:56;100700.48;;;21.55;86.91
41706;BME280;27385;51.096;17.190;2023-08-17T07:21:26;100696.84;;;21.60;87.18
41706;BME280;27385;51.096;17.190;2023-08-17T07:23:57;100696.34;;;21.64;87.18
41706;BME280;27385;51.096;17.190;2023-08-17T07:26:28;100697.39;;;21.69;86.77
41706;BME280;27385;51.096;17.190;2023-08-17T07:28:59;100701.44;;;21.73;86.69
41706;BME280;27385;51.096;17.190;2023-08-17T07:31:30;100701.92;;;21.75;85.94
41706;BME280;27385;51.096;17.190;2023-08-17T07:34:03;100708.98;;;21.76;85.99
41706;BME280;27385;51.096;17.190;2023-08-17T07:36:34;100711.80;;;21.77;85.09
41706;BME280;27385;51.096;17.190;2023-08-17T07:39:05;100715.67;;;21.75;84.05
41706;BME280;27385;51.096;17.190;2023-08-17T07:41:37;100713.66;;;21.74;84.31
41706;BME280;27385;51.096;17.190;2023-08-17T07:44:08;100713.41;;;21.79;84.15
41706;BME280;27385;51.096;17.190;2023-08-17T07:46:39;100713.69;;;21.83;83.65
41706;BME280;27385;51.096;17.190;2023-08-17T07:49:10;100710.05;;;21.86;83.53
41706;BME280;27385;51.096;17.190;2023-08-17T07:51:42;100707.59;;;21.93;83.43
41706;BME280;27385;51.096;17.190;2023-08-17T07:54:12;100706.04;;;22.01;83.67
41706;BME280;27385;51.096;17.190;2023-08-17T07:56:43;100699.01;;;22.06;82.78
41706;BME280;27385;51.096;17.190;2023-08-17T07:59:14;100692.79;;;22.06;82.00
41706;BME280;27385;51.096;17.190;2023-08-17T08:01:45;100690.19;;;22.07;82.12
41706;BME280;27385;51.096;17.190;2023-08-17T08:04:16;100682.46;;;22.11;82.17
41706;BME280;27385;51.096;17.190;2023-08-17T08:06:47;100677.35;;;22.13;82.12
41706;BME280;27385;51.096;17.190;2023-08-17T08:09:18;100683.34;;;22.19;82.17
41706;BME280;27385;51.096;17.190;2023-08-17T08:11:50;100691.33;;;22.27;82.36
41706;BME280;27385;51.096;17.190;2023-08-17T08:14:21;100691.52;;;22.35;81.88
41706;BME280;27385;51.096;17.190;2023-08-17T08:16:52;100692.48;;;22.39;81.57
41706;BME280;27385;51.096;17.190;2023-08-17T08:19:23;100686.61;;;22.43;81.93
41706;BME280;27385;51.096;17.190;2023-08-17T08:21:54;100684.05;;;22.49;81.56
41706;BME280;27385;51.096;17.190;2023-08-17T08:24:25;100684.79;;;22.55;81.19
41706;BME280;27385;51.096;17.190;2023-08-17T08:27:00;100685.08;;;22.62;80.79
41706;BME280;27385;51.096;17.190;2023-08-17T08:29:31;100684.27;;;22.68;80.69
41706;BME280;27385;51.096;17.190;2023-08-17T08:32:02;100690.92;;;22.77;81.01
41706;BME280;27385;51.096;17.190;2023-08-17T08:34:33;100687.70;;;22.87;80.86
41706;BME280;27385;51.096;17.190;2023-08-17T08:37:04;100693.13;;;22.95;80.52
41706;BME280;27385;51.096;17.190;2023-08-17T08:39:56;100694.23;;;22.99;79.89
41706;BME280;27385;51.096;17.190;2023-08-17T08:42:27;100694.44;;;23.05;79.94
41706;BME280;27385;51.096;17.190;2023-08-17T08:44:58;100695.14;;;23.10;79.80
41706;BME280;27385;51.096;17.190;2023-08-17T08:47:31;100693.08;;;23.13;79.52
41706;BME280;27385;51.096;17.190;2023-08-17T08:50:06;100693.66;;;23.14;79.04
41706;BME280;27385;51.096;17.190;2023-08-17T08:52:40;100699.58;;;23.11;78.67
41706;BME280;27385;51.096;17.190;2023-08-17T08:55:17;100706.98;;;23.09;78.65
41706;BME280;27385;51.096;17.190;2023-08-17T08:57:50;100705.18;;;23.12;78.96
41706;BME280;27385;51.096;17.190;2023-08-17T09:00:23;100697.20;;;23.15;78.70
41706;BME280;27385;51.096;17.190;2023-08-17T09:02:55;100693.58;;;23.18;78.50
41706;BME280;27385;51.096;17.190;2023-08-17T09:05:27;100695.33;;;23.21;78.86
41706;BME280;27385;51.096;17.190;2023-08-17T09:07:59;100696.88;;;23.27;78.59
41706;BME280;27385;51.096;17.190;2023-08-17T09:10:31;100697.41;;;23.34;78.18
41706;BME280;27385;51.096;17.190;2023-08-17T09:13:02;100691.64;;;23.38;77.52
41706;BME280;27385;51.096;17.190;2023-08-17T09:15:33;100691.73;;;23.45;77.32
41706;BME280;27385;51.096;17.190;2023-08-17T09:18:06;100687.47;;;23.53;78.31
41706;BME280;27385;51.096;17.190;2023-08-17T09:20:42;100687.77;;;23.63;78.88
41706;BME280;27385;51.096;17.190;2023-08-17T09:23:16;100684.80;;;23.75;78.46
41706;BME280;27385;51.096;17.190;2023-08-17T09:25:49;100684.23;;;23.82;77.55
41706;BME280;27385;51.096;17.190;2023-08-17T09:28:21;100680.31;;;23.87;77.38
41706;BME280;27385;51.096;17.190;2023-08-17T09:30:53;100681.12;;;23.96;77.66
41706;BME280;27385;51.096;17.190;2023-08-17T09:33:25;100681.86;;;24.08;77.52
41706;BME280;27385;51.096;17.190;2023-08-17T09:35:57;100680.69;;;24.18;77.15
41706;BME280;27385;51.096;17.190;2023-08-17T09:38:29;100677.72;;;24.27;77.17
41706;BME280;27385;51.096;17.190;2023-08-17T09:41:00;100678.48;;;24.36;76.97
41706;BME280;27385;51.096;17.190;2023-08-17T09:43:31;100678.66;;;24.43;76.46
41706;BME280;27385;51.096;17.190;2023-08-17T09:46:04;100682.66;;;24.48;76.28
41706;BME280;27385;51.096;17.190;2023-08-17T09:48:37;100680.39;;;24.54;76.02
41706;BME280;27385;51.096;17.190;2023-08-17T09:51:08;100677.63;;;24.55;75.38
41706;BME280;27385;51.096;17.190;2023-08-17T09:53:39;100670.55;;;24.55;74.85
41706;BME280;27385;51.096;17.190;2023-08-17T09:56:11;100671.82;;;24.58;74.70
41706;BME280;27385;51.096;17.190;2023-08-17T09:58:43;100666.86;;;24.60;74.45
41706;BME280;27385;51.096;17.190;2023-08-17T10:01:15;100665.70;;;24.61;73.74
41706;BME280;27385;51.096;17.190;2023-08-17T10:03:46;100662.53;;;24.59;73.69
41706;BME280;27385;51.096;17.190;2023-08-17T10:06:25;100661.21;;;24.62;73.67
41706;BME280;27385;51.096;17.190;2023-08-17T10:08:59;100656.56;;;24.64;73.76
41706;BME280;27385;51.096;17.190;2023-08-17T10:11:32;100656.59;;;24.70;74.43
41706;BME280;27385;51.096;17.190;2023-08-17T10:14:12;100655.75;;;24.80;74.39
41706;BME280;27385;51.096;17.190;2023-08-17T10:16:46;100649.63;;;24.92;74.40
41706;BME280;27385;51.096;17.190;2023-08-17T10:19:29;100647.55;;;24.98;73.72
41706;BME280;27385;51.096;17.190;2023-08-17T10:22:06;100649.37;;;25.01;73.32
41706;BME280;27385;51.096;17.190;2023-08-17T10:24:39;100644.13;;;25.05;73.71
41706;BME280;27385;51.096;17.190;2023-08-17T10:27:11;100642.10;;;25.14;73.93
41706;BME280;27385;51.096;17.190;2023-08-17T10:29:43;100641.64;;;25.26;74.03
41706;BME280;27385;51.096;17.190;2023-08-17T10:32:14;100638.70;;;25.34;73.08
41706;BME280;27385;51.096;17.190;2023-08-17T10:34:46;100642.05;;;25.39;72.57
41706;BME280;27385;51.096;17.190;2023-08-17T10:37:18;100644.62;;;25.45;72.02
41706;BME280;27385;51.096;17.190;2023-08-17T10:39:50;100639.47;;;25.47;70.38
41706;BME280;27385;51.096;17.190;2023-08-17T10:42:33;100634.03;;;25.45;70.36
41706;BME280;27385;51.096;17.190;2023-08-17T10:45:27;100629.71;;;25.49;70.85
41706;BME280;27385;51.096;17.190;2023-08-17T10:48:28;100628.02;;;25.56;70.79
41706;BME280;27385;51.096;17.190;2023-08-17T10:51:04;100630.15;;;25.63;69.99
41706;BME280;27385;51.096;17.190;2023-08-17T10:53:40;100630.63;;;25.65;70.37
41706;BME280;27385;51.096;17.190;2023-08-17T10:56:14;100630.52;;;25.69;69.54
41706;BME280;27385;51.096;17.190;2023-08-17T10:58:45;100626.49;;;25.70;69.64
41706;BME280;27385;51.096;17.190;2023-08-17T11:01:39;100623.67;;;25.73;69.22
41706;BME280;27385;51.096;17.190;2023-08-17T11:04:15;100620.20;;;25.77;69.76
41706;BME280;27385;51.096;17.190;2023-08-17T11:06:49;100619.25;;;25.85;69.36
41706;BME280;27385;51.096;17.190;2023-08-17T11:09:39;100619.55;;;25.93;67.85
41706;BME280;27385;51.096;17.190;2023-08-17T11:12:27;100614.83;;;25.97;67.92
41706;BME280;27385;51.096;17.190;2023-08-17T11:15:00;100614.99;;;26.03;67.70
41706;BME280;27385;51.096;17.190;2023-08-17T11:17:31;100614.79;;;26.08;67.89
41706;BME280;27385;51.096;17.190;2023-08-17T11:20:02;100615.23;;;26.17;67.97
41706;BME280;27385;51.096;17.190;2023-08-17T11:22:34;100609.89;;;26.23;66.79
41706;BME280;27385;51.096;17.190;2023-08-17T11:25:06;100611.80;;;26.24;65.48
41706;BME280;27385;51.096;17.190;2023-08-17T11:27:38;100608.27;;;26.24;65.47
41706;BME280;27385;51.096;17.190;2023-08-17T11:30:11;100610.69;;;26.28;64.71
41706;BME280;27385;51.096;17.190;2023-08-17T11:32:42;100608.59;;;26.29;64.98
41706;BME280;27385;51.096;17.190;2023-08-17T11:35:13;100605.34;;;26.36;64.68
41706;BME280;27385;51.096;17.190;2023-08-17T11:37:44;100607.61;;;26.46;64.59
41706;BME280;27385;51.096;17.190;2023-08-17T11:40:16;100603.86;;;26.54;64.38
41706;BME280;27385;51.096;17.190;2023-08-17T11:42:48;100604.08;;;26.56;63.39
41706;BME280;27385;51.096;17.190;2023-08-17T11:45:21;100607.41;;;26.54;63.37
41706;BME280;27385;51.096;17.190;2023-08-17T11:47:56;100609.85;;;26.55;63.33
41706;BME280;27385;51.096;17.190;2023-08-17T11:50:26;100611.38;;;26.56;63.36
41706;BME280;27385;51.096;17.190;2023-08-17T11:53:00;100609.13;;;26.60;63.48
41706;BME280;27385;51.096;17.190;2023-08-17T11:55:31;100617.18;;;26.65;63.25
41706;BME280;27385;51.096;17.190;2023-08-17T11:58:03;100617.09;;;26.71;63.28
41706;BME280;27385;51.096;17.190;2023-08-17T12:00:39;100615.31;;;26.75;63.44
41706;BME280;27385;51.096;17.190;2023-08-17T12:03:14;100614.77;;;26.76;62.67
41706;BME280;27385;51.096;17.190;2023-08-17T12:05:46;100614.16;;;26.76;62.83
41706;BME280;27385;51.096;17.190;2023-08-17T12:08:18;100616.75;;;26.81;62.92
41706;BME280;27385;51.096;17.190;2023-08-17T12:10:49;100615.30;;;26.87;62.85
41706;BME280;27385;51.096;17.190;2023-08-17T12:13:31;100617.23;;;26.95;62.35
41706;BME280;27385;51.096;17.190;2023-08-17T12:16:00;100612.73;;;26.99;62.76
41706;BME280;27385;51.096;17.190;2023-08-17T12:18:34;100607.80;;;27.03;62.71
41706;BME280;27385;51.096;17.190;2023-08-17T12:21:06;100605.52;;;27.05;62.85
41706;BME280;27385;51.096;17.190;2023-08-17T12:23:37;100603.77;;;27.10;62.40
41706;BME280;27385;51.096;17.190;2023-08-17T12:26:08;100599.64;;;27.15;62.00
41706;BME280;27385;51.096;17.190;2023-08-17T12:28:41;100597.07;;;27.19;61.47
41706;BME280;27385;51.096;17.190;2023-08-17T12:31:12;100593.66;;;27.19;60.90
41706;BME280;27385;51.096;17.190;2023-08-17T12:33:42;100591.58;;;27.21;60.96
41706;BME280;27385;51.096;17.190;2023-08-17T12:36:13;100582.93;;;27.24;60.42
41706;BME280;27385;51.096;17.190;2023-08-17T12:38:45;100576.56;;;27.27;60.09
41706;BME280;27385;51.096;17.190;2023-08-17T12:41:17;100572.92;;;27.30;59.77
41706;BME280;27385;51.096;17.190;2023-08-17T12:43:48;100571.77;;;27.31;59.70
41706;BME280;27385;51.096;17.190;2023-08-17T12:46:19;100566.11;;;27.37;59.53
41706;BME280;27385;51.096;17.190;2023-08-17T12:48:50;100567.28;;;27.42;59.28
41706;BME280;27385;51.096;17.190;2023-08-17T12:51:21;100563.69;;;27.49;59.17
41706;BME280;27385;51.096;17.190;2023-08-17T12:53:52;100552.02;;;27.54;58.72
41706;BME280;27385;51.096;17.190;2023-08-17T12:56:23;100543.23;;;27.55;58.47
41706;BME280;27385;51.096;17.190;2023-08-17T12:58:53;100538.46;;;27.58;58.85
41706;BME280;27385;51.096;17.190;2023-08-17T13:01:24;100524.55;;;27.61;58.67
41706;BME280;27385;51.096;17.190;2023-08-17T13:03:56;100524.12;;;27.65;58.45
41706;BME280;27385;51.096;17.190;2023-08-17T13:06:27;100523.23;;;27.69;58.31